Time;durP1;ratioP1;P1;durP2;ratioP2;P2;SDS_P1;SDS_P2;PMS_P1;PMS_P2;Temp;Humidity;BMP_temperature;BMP_pressure;BME280_temperature;BME280_humidity;BME280_pressure;Samples;Min_cycle;Max_cycle;Signal;HPM_P1;HPM_P2
2023/03/24 00:00:01;;;;;;;6.28;2.63;;;;;;;;;;5010316;28;20026;-70
2023/03/24 00:02:47;;;;;;;5.22;2.28;;;;;;;;;;5006915;28;20493;-72
2023/03/24 00:05:32;;;;;;;6.03;2.60;;;;;;;;;;4988943;28;20465;-70
2023/03/24 00:08:18;;;;;;;4.85;2.65;;;;;;;;;;5008664;28;20042;-72
2023/03/24 00:11:06;;;;;;;6.75;3.00;;;;;;;;;;5023102;28;20557;-72
2023/03/24 00:13:51;;;;;;;9.13;3.20;;;;;;;;;;5022259;28;20081;-71
2023/03/24 00:16:37;;;;;;;4.85;3.03;;;;;;;;;;5023478;28;20103;-88
2023/03/24 00:19:22;;;;;;;4.47;2.60;;;;;;;;;;5008949;28;20902;-72
2023/03/24 00:22:08;;;;;;;4.75;2.13;;;;;;;;;;5006372;28;20069;-73
2023/03/24 00:24:53;;;;;;;5.30;2.20;;;;;;;;;;4997559;28;20489;-70
2023/03/24 00:27:38;;;;;;;5.53;1.75;;;;;;;;;;5005658;28;20510;-73
2023/03/24 00:30:24;;;;;;;4.55;2.72;;;;;;;;;;5016493;28;20136;-71
2023/03/24 00:33:10;;;;;;;3.15;2.13;;;;;;;;;;5006474;28;20607;-74
2023/03/24 00:35:56;;;;;;;4.22;1.90;;;;;;;;;;5011570;28;20025;-76
2023/03/24 00:38:41;;;;;;;4.95;2.20;;;;;;;;;;5000799;28;20022;-74
2023/03/24 00:41:27;;;;;;;4.90;2.20;;;;;;;;;;5008521;28;20056;-74
2023/03/24 00:44:16;;;;;;;5.13;2.17;;;;;;;;;;4990175;28;20036;-74
2023/03/24 00:47:02;;;;;;;4.15;2.10;;;;;;;;;;4981193;28;20065;-72
2023/03/24 00:49:52;;;;;;;3.97;2.30;;;;;;;;;;5017194;28;20042;-75
2023/03/24 00:52:42;;;;;;;3.42;1.95;;;;;;;;;;5013501;28;20221;-73
2023/03/24 00:55:28;;;;;;;4.45;2.15;;;;;;;;;;4999017;28;20033;-73
2023/03/24 00:58:22;;;;;;;5.28;2.17;;;;;;;;;;5004766;28;20112;-72
2023/03/24 01:01:07;;;;;;;3.63;1.77;;;;;;;;;;5006022;28;20064;-74
2023/03/24 01:03:53;;;;;;;3.35;1.98;;;;;;;;;;5018000;28;20499;-73
2023/03/24 01:06:38;;;;;;;3.92;2.13;;;;;;;;;;5007598;28;20065;-73
2023/03/24 01:09:23;;;;;;;4.03;1.88;;;;;;;;;;5020823;28;20046;-73
2023/03/24 01:12:09;;;;;;;4.95;2.00;;;;;;;;;;5008751;28;20041;-80
2023/03/24 01:14:55;;;;;;;5.47;2.13;;;;;;;;;;5008275;28;20081;-73
2023/03/24 01:17:41;;;;;;;5.00;2.25;;;;;;;;;;4994810;28;20385;-73
2023/03/24 01:20:27;;;;;;;4.30;2.45;;;;;;;;;;5008119;28;20048;-72
2023/03/24 01:23:13;;;;;;;6.00;2.42;;;;;;;;;;5001370;28;20053;-72
2023/03/24 01:26:03;;;;;;;2.80;2.22;;;;;;;;;;5007374;28;20036;-72
2023/03/24 01:28:48;;;;;;;3.60;1.90;;;;;;;;;;5021383;28;20511;-71
2023/03/24 01:31:34;;;;;;;5.53;2.28;;;;;;;;;;5017253;28;20037;-72
2023/03/24 01:34:19;;;;;;;9.23;2.30;;;;;;;;;;5020810;28;20026;-76
2023/03/24 01:37:05;;;;;;;3.42;1.83;;;;;;;;;;5007565;28;20497;-77
2023/03/24 01:39:50;;;;;;;3.95;2.25;;;;;;;;;;5005728;28;20034;-79
2023/03/24 01:42:37;;;;;;;4.97;2.00;;;;;;;;;;5004841;28;20062;-78
2023/03/24 01:45:37;;;;;;;3.50;1.77;;;;;;;;;;5009007;28;20026;-77
2023/03/24 01:48:25;;;;;;;3.17;2.05;;;;;;;;;;5010857;28;20085;-76
2023/03/24 01:51:14;;;;;;;3.42;1.83;;;;;;;;;;5010650;28;20049;-81
2023/03/24 01:54:18;;;;;;;4.88;2.72;;;;;;;;;;4995395;28;20331;-81
2023/03/24 01:57:07;;;;;;;5.40;2.03;;;;;;;;;;5016048;28;20092;-81
2023/03/24 01:59:54;;;;;;;2.15;1.67;;;;;;;;;;5018490;28;20080;-81
2023/03/24 02:02:41;;;;;;;3.97;2.17;;;;;;;;;;5019032;28;20125;-84
2023/03/24 02:05:31;;;;;;;2.88;2.22;;;;;;;;;;5004949;28;20054;-81
2023/03/24 02:08:20;;;;;;;3.60;2.28;;;;;;;;;;5008419;28;20025;-75
2023/03/24 02:11:05;;;;;;;3.17;1.92;;;;;;;;;;5010604;28;20038;-72
2023/03/24 02:13:51;;;;;;;7.28;2.15;;;;;;;;;;5021336;28;20105;-72
2023/03/24 02:16:37;;;;;;;3.13;2.00;;;;;;;;;;5009453;28;20061;-71
2023/03/24 02:19:36;;;;;;;4.97;2.22;;;;;;;;;;5006321;28;20022;-73
2023/03/24 02:22:21;;;;;;;;;;;;;;;;;;5009578;28;20528;-71
2023/03/24 02:25:07;;;;;;;3.95;2.40;;;;;;;;;;5024043;28;19935;-73
2023/03/24 02:28:04;;;;;;;5.82;2.33;;;;;;;;;;5024840;28;20030;-81
2023/03/24 02:31:22;;;;;;;3.65;1.75;;;;;;;;;;5006006;28;20132;-79
2023/03/24 02:34:11;;;;;;;5.25;2.38;;;;;;;;;;4928386;28;20112;-80
2023/03/24 02:37:17;;;;;;;2.58;1.80;;;;;;;;;;4991439;28;20126;-79
2023/03/24 02:40:14;;;;;;;3.55;2.03;;;;;;;;;;5010289;28;20124;-80
2023/03/24 02:43:26;;;;;;;2.92;1.90;;;;;;;;;;5010887;28;20532;-77
2023/03/24 02:46:17;;;;;;;4.18;1.70;;;;;;;;;;5023385;28;20117;-80
2023/03/24 02:49:32;;;;;;;3.63;2.00;;;;;;;;;;4996450;28;20037;-79
2023/03/24 02:52:21;;;;;;;3.67;2.00;;;;;;;;;;5011613;28;20564;-81
2023/03/24 02:55:21;;;;;;;2.67;1.77;;;;;;;;;;5016014;28;20034;-79
2023/03/24 02:58:10;;;;;;;3.80;1.80;;;;;;;;;;5024247;28;20126;-78
2023/03/24 03:01:12;;;;;;;1.75;1.40;;;;;;;;;;5010561;28;20069;-79
2023/03/24 03:04:01;;;;;;;2.10;1.63;;;;;;;;;;5023524;28;20041;-81
2023/03/24 03:06:52;;;;;;;2.38;1.67;;;;;;;;;;5012831;28;20369;-72
2023/03/24 03:09:40;;;;;;;2.58;1.65;;;;;;;;;;5008974;28;20116;-74
2023/03/24 03:12:26;;;;;;;3.60;1.98;;;;;;;;;;5019484;28;20116;-73
2023/03/24 03:15:15;;;;;;;5.15;1.90;;;;;;;;;;5020963;28;20042;-73
2023/03/24 03:18:19;;;;;;;3.22;1.88;;;;;;;;;;5007480;28;20033;-75
2023/03/24 03:21:07;;;;;;;2.10;1.52;;;;;;;;;;5024131;28;20091;-72
2023/03/24 03:23:56;;;;;;;3.90;1.60;;;;;;;;;;5008051;28;20045;-72
2023/03/24 03:26:43;;;;;;;3.83;1.73;;;;;;;;;;5003569;28;20036;-72
2023/03/24 03:29:32;;;;;;;3.97;2.00;;;;;;;;;;5007922;28;20117;-73
2023/03/24 03:32:23;;;;;;;3.42;1.85;;;;;;;;;;5005659;28;20037;-72
2023/03/24 03:35:12;;;;;;;2.63;1.67;;;;;;;;;;5007324;28;20559;-71
2023/03/24 03:37:59;;;;;;;2.03;1.58;;;;;;;;;;5023106;28;20480;-72
2023/03/24 03:40:51;;;;;;;2.63;1.60;;;;;;;;;;4983239;28;20034;-78
2023/03/24 03:43:38;;;;;;;3.08;1.52;;;;;;;;;;5012178;28;20035;-86
2023/03/24 03:46:24;;;;;;;2.10;1.23;;;;;;;;;;5011312;28;20034;-87
2023/03/24 03:49:09;;;;;;;4.03;1.55;;;;;;;;;;4993815;28;20176;-88
2023/03/24 03:51:56;;;;;;;4.80;1.70;;;;;;;;;;4996435;28;20033;-85
2023/03/24 03:54:42;;;;;;;2.25;1.83;;;;;;;;;;4996371;28;20041;-87
2023/03/24 03:57:27;;;;;;;3.80;1.83;;;;;;;;;;4995570;28;20485;-79
2023/03/24 04:00:14;;;;;;;5.63;1.52;;;;;;;;;;5023474;28;20037;-80
2023/03/24 04:03:29;;;;;;;4.90;1.73;;;;;;;;;;5008575;28;20041;-80
2023/03/24 04:06:14;;;;;;;3.30;1.40;;;;;;;;;;5001145;28;20034;-80
2023/03/24 04:09:16;;;;;;;1.83;1.30;;;;;;;;;;5004979;28;20034;-80
2023/03/24 04:12:07;;;;;;;2.17;1.55;;;;;;;;;;5014549;28;20030;-84
2023/03/24 04:15:02;;;;;;;2.60;1.58;;;;;;;;;;4991628;28;20024;-80
2023/03/24 04:17:47;;;;;;;2.22;1.40;;;;;;;;;;5012115;28;20030;-82
2023/03/24 04:20:45;;;;;;;4.13;2.33;;;;;;;;;;5008937;28;20102;-74
2023/03/24 04:23:45;;;;;;;4.90;2.10;;;;;;;;;;5008087;28;20451;-73
2023/03/24 04:26:34;;;;;;;3.38;1.92;;;;;;;;;;4992720;28;20667;-73
2023/03/24 04:29:30;;;;;;;6.25;1.90;;;;;;;;;;5022387;28;20420;-74
2023/03/24 04:32:40;;;;;;;2.65;1.70;;;;;;;;;;5014142;28;20061;-73
2023/03/24 04:35:31;;;;;;;2.13;1.45;;;;;;;;;;5019957;28;20029;-72
2023/03/24 04:38:24;;;;;;;1.85;1.30;;;;;;;;;;5009743;28;20033;-86
2023/03/24 04:41:10;;;;;;;3.85;1.30;;;;;;;;;;5023406;28;20120;-87
2023/03/24 04:43:56;;;;;;;3.38;1.67;;;;;;;;;;4994836;28;20033;-88
2023/03/24 04:46:42;;;;;;;2.78;1.38;;;;;;;;;;5012280;28;20030;-88
2023/03/24 04:49:27;;;;;;;2.50;1.60;;;;;;;;;;5007737;28;20036;-87
2023/03/24 04:52:14;;;;;;;2.70;1.63;;;;;;;;;;4995230;28;20097;-80
2023/03/24 04:55:01;;;;;;;3.72;1.55;;;;;;;;;;5007931;28;20084;-76
2023/03/24 04:57:46;;;;;;;4.57;1.60;;;;;;;;;;5012515;28;20029;-76
2023/03/24 05:00:31;;;;;;;2.22;1.40;;;;;;;;;;5022419;28;20022;-77
2023/03/24 05:03:17;;;;;;;1.77;1.40;;;;;;;;;;5008514;28;20044;-75
2023/03/24 05:06:05;;;;;;;3.50;1.63;;;;;;;;;;5012736;28;20146;-77
2023/03/24 05:08:51;;;;;;;3.03;1.70;;;;;;;;;;5008512;28;20110;-78
2023/03/24 05:11:36;;;;;;;5.85;2.08;;;;;;;;;;5006964;28;20514;-79
2023/03/24 05:14:22;;;;;;;1.50;1.33;;;;;;;;;;5009699;28;20124;-77
2023/03/24 05:17:07;;;;;;;1.98;1.42;;;;;;;;;;5007958;28;20040;-75
2023/03/24 05:19:53;;;;;;;1.92;1.50;;;;;;;;;;5006706;28;20416;-77
2023/03/24 05:22:38;;;;;;;6.88;2.13;;;;;;;;;;5005541;28;20049;-77
2023/03/24 05:25:23;;;;;;;3.78;1.75;;;;;;;;;;5006583;28;20030;-79
2023/03/24 05:28:08;;;;;;;3.20;1.80;;;;;;;;;;5018156;28;20489;-77
2023/03/24 05:30:54;;;;;;;3.22;1.85;;;;;;;;;;5021327;28;20037;-87
2023/03/24 05:33:39;;;;;;;2.13;1.77;;;;;;;;;;4998913;28;20132;-77
2023/03/24 05:36:25;;;;;;;2.88;1.60;;;;;;;;;;4984287;28;20052;-77
2023/03/24 05:39:10;;;;;;;3.97;2.10;;;;;;;;;;5007869;28;20114;-77
2023/03/24 05:41:55;;;;;;;2.22;1.38;;;;;;;;;;5007227;28;20048;-79
2023/03/24 05:44:40;;;;;;;2.97;1.77;;;;;;;;;;5016895;28;20049;-78
2023/03/24 05:47:26;;;;;;;2.88;1.60;;;;;;;;;;4991444;28;20037;-80
2023/03/24 05:50:11;;;;;;;2.03;1.42;;;;;;;;;;5020052;28;20088;-90
2023/03/24 05:52:56;;;;;;;3.83;1.77;;;;;;;;;;4995231;28;20034;-89
2023/03/24 05:55:43;;;;;;;3.55;1.75;;;;;;;;;;4997565;28;20477;-88
2023/03/24 05:58:29;;;;;;;2.10;1.48;;;;;;;;;;5013596;28;20060;-90
2023/03/24 06:01:17;;;;;;;3.95;1.95;;;;;;;;;;5011246;28;20014;-89
2023/03/24 06:04:02;;;;;;;3.92;1.83;;;;;;;;;;5016287;28;20038;-90
2023/03/24 06:06:49;;;;;;;3.75;1.70;;;;;;;;;;4989608;28;20485;-92
2023/03/24 06:09:35;;;;;;;3.67;2.10;;;;;;;;;;4990945;28;20042;-80
2023/03/24 06:12:20;;;;;;;3.63;2.10;;;;;;;;;;5015495;28;20391;-81
2023/03/24 06:15:07;;;;;;;3.28;1.92;;;;;;;;;;5004101;28;20108;-78
2023/03/24 06:17:53;;;;;;;4.03;2.13;;;;;;;;;;5007330;28;20085;-80
2023/03/24 06:20:40;;;;;;;3.60;1.98;;;;;;;;;;5017414;28;20075;-80
2023/03/24 06:23:28;;;;;;;3.55;2.03;;;;;;;;;;5008764;28;20041;-81
2023/03/24 06:26:13;;;;;;;4.72;2.17;;;;;;;;;;4991769;28;20022;-76
2023/03/24 06:28:59;;;;;;;3.75;2.08;;;;;;;;;;5025449;28;20033;-80
2023/03/24 06:31:45;;;;;;;5.70;2.30;;;;;;;;;;5009326;28;20524;-81
2023/03/24 06:34:31;;;;;;;5.03;2.40;;;;;;;;;;5010570;28;20029;-79
2023/03/24 06:37:16;;;;;;;5.95;2.15;;;;;;;;;;5018917;28;20041;-79
2023/03/24 06:40:02;;;;;;;7.05;2.40;;;;;;;;;;5006062;28;20523;-79
2023/03/24 06:42:48;;;;;;;8.02;3.38;;;;;;;;;;5008754;28;20052;-72
2023/03/24 06:45:33;;;;;;;4.07;2.55;;;;;;;;;;5010715;28;20026;-74
2023/03/24 06:48:19;;;;;;;3.38;2.17;;;;;;;;;;5022657;28;20037;-78
2023/03/24 06:51:05;;;;;;;3.13;2.15;;;;;;;;;;5002411;28;20046;-78
2023/03/24 06:53:50;;;;;;;3.92;2.47;;;;;;;;;;5009027;28;20038;-76
2023/03/24 06:56:35;;;;;;;5.15;2.20;;;;;;;;;;5004225;28;20041;-76
2023/03/24 06:59:22;;;;;;;10.98;3.72;;;;;;;;;;5024625;28;20022;-78
2023/03/24 07:02:11;;;;;;;4.70;2.35;;;;;;;;;;5010560;28;20026;-82
2023/03/24 07:04:57;;;;;;;17.27;3.47;;;;;;;;;;5010302;28;20544;-72
2023/03/24 07:07:42;;;;;;;3.95;2.17;;;;;;;;;;5021734;28;20034;-75
2023/03/24 07:10:28;;;;;;;2.97;2.20;;;;;;;;;;5014630;28;20042;-73
2023/03/24 07:13:13;;;;;;;3.78;1.95;;;;;;;;;;5008438;28;20092;-72
2023/03/24 07:15:58;;;;;;;2.67;2.25;;;;;;;;;;5019541;28;20129;-73
2023/03/24 07:18:44;;;;;;;2.80;1.95;;;;;;;;;;5009087;28;20030;-72
2023/03/24 07:21:29;;;;;;;4.43;2.20;;;;;;;;;;5024317;28;20021;-77
2023/03/24 07:24:17;;;;;;;4.03;2.13;;;;;;;;;;5008902;28;20053;-80
2023/03/24 07:27:03;;;;;;;3.03;2.22;;;;;;;;;;5009494;28;20033;-81
2023/03/24 07:29:48;;;;;;;3.67;2.53;;;;;;;;;;5001976;28;20147;-80
2023/03/24 07:32:37;;;;;;;4.55;2.60;;;;;;;;;;5021258;28;20085;-79
2023/03/24 07:35:23;;;;;;;3.63;2.45;;;;;;;;;;5009250;28;20033;-78
2023/03/24 07:38:09;;;;;;;3.97;2.17;;;;;;;;;;5008854;28;20034;-72
2023/03/24 07:40:56;;;;;;;3.05;2.10;;;;;;;;;;5022533;28;20030;-71
2023/03/24 07:43:41;;;;;;;3.92;2.63;;;;;;;;;;5023248;28;20025;-72
2023/03/24 07:46:27;;;;;;;6.03;2.55;;;;;;;;;;5015057;28;20037;-72
2023/03/24 07:49:12;;;;;;;3.53;2.10;;;;;;;;;;5002862;28;20030;-71
2023/03/24 07:51:58;;;;;;;5.07;3.00;;;;;;;;;;5009043;28;20029;-71
2023/03/24 07:54:43;;;;;;;5.78;2.20;;;;;;;;;;5020942;28;20088;-74
2023/03/24 07:57:28;;;;;;;4.28;2.42;;;;;;;;;;5012845;28;20026;-71
2023/03/24 08:00:16;;;;;;;6.47;2.83;;;;;;;;;;5020909;28;20022;-73
2023/03/24 08:03:02;;;;;;;6.65;2.83;;;;;;;;;;5004331;28;20037;-74
2023/03/24 08:05:47;;;;;;;8.07;2.58;;;;;;;;;;5003350;28;20028;-72
2023/03/24 08:08:33;;;;;;;5.03;2.92;;;;;;;;;;5020797;28;20135;-74
2023/03/24 08:11:18;;;;;;;4.28;2.42;;;;;;;;;;5005771;28;20160;-70
2023/03/24 08:14:03;;;;;;;4.55;2.47;;;;;;;;;;5006002;28;20033;-71
2023/03/24 08:16:48;;;;;;;6.80;2.60;;;;;;;;;;5007121;28;20025;-76
2023/03/24 08:19:34;;;;;;;3.75;2.50;;;;;;;;;;5006256;28;20041;-76
2023/03/24 08:22:19;;;;;;;5.63;2.83;;;;;;;;;;5006225;28;20398;-76
2023/03/24 08:25:05;;;;;;;3.88;2.33;;;;;;;;;;5008606;28;20036;-75
2023/03/24 08:27:51;;;;;;;5.43;2.50;;;;;;;;;;5007356;28;20034;-78
2023/03/24 08:30:36;;;;;;;5.35;2.10;;;;;;;;;;5008261;28;20072;-74
2023/03/24 08:33:21;;;;;;;3.72;2.20;;;;;;;;;;5008378;28;20060;-75
2023/03/24 08:36:07;;;;;;;6.60;3.13;;;;;;;;;;5006847;28;20057;-72
2023/03/24 08:38:54;;;;;;;4.85;2.47;;;;;;;;;;5006568;28;20044;-72
2023/03/24 08:41:39;;;;;;;3.92;2.20;;;;;;;;;;4987894;28;20030;-71
2023/03/24 08:44:25;;;;;;;5.35;2.55;;;;;;;;;;5004130;28;20499;-70
2023/03/24 08:47:10;;;;;;;5.15;2.38;;;;;;;;;;5006713;28;20022;-71
2023/03/24 08:49:56;;;;;;;3.97;2.40;;;;;;;;;;5004204;28;20046;-72
2023/03/24 08:52:42;;;;;;;3.17;2.13;;;;;;;;;;5006415;28;20447;-76
2023/03/24 08:55:27;;;;;;;4.20;2.50;;;;;;;;;;5002804;28;20025;-69
2023/03/24 08:58:14;;;;;;;3.33;2.45;;;;;;;;;;5017277;28;20539;-72
2023/03/24 09:01:00;;;;;;;3.60;2.53;;;;;;;;;;5006063;28;20431;-70
2023/03/24 09:03:45;;;;;;;2.42;1.88;;;;;;;;;;5004100;28;20018;-71
2023/03/24 09:06:31;;;;;;;4.88;2.20;;;;;;;;;;5005554;28;20033;-71
2023/03/24 09:09:16;;;;;;;3.05;2.55;;;;;;;;;;4990962;28;20029;-72
2023/03/24 09:12:02;;;;;;;3.70;2.28;;;;;;;;;;5006582;28;20047;-74
2023/03/24 09:14:49;;;;;;;3.42;1.90;;;;;;;;;;4971457;28;20026;-74
2023/03/24 09:17:34;;;;;;;3.65;2.03;;;;;;;;;;4970084;28;20041;-73
2023/03/24 09:20:20;;;;;;;7.95;2.40;;;;;;;;;;4972935;28;20474;-73
2023/03/24 09:23:05;;;;;;;6.93;2.03;;;;;;;;;;4980223;28;20093;-73
2023/03/24 09:25:52;;;;;;;3.35;2.08;;;;;;;;;;4986021;28;20085;-73
2023/03/24 09:28:37;;;;;;;2.30;1.55;;;;;;;;;;4956942;28;20042;-72
2023/03/24 09:31:23;;;;;;;3.30;1.60;;;;;;;;;;4984281;28;20034;-70
2023/03/24 09:34:08;;;;;;;4.22;2.08;;;;;;;;;;4985103;28;20554;-70
2023/03/24 09:36:53;;;;;;;2.75;2.00;;;;;;;;;;4974355;28;20030;-70
2023/03/24 09:39:38;;;;;;;2.17;1.92;;;;;;;;;;4972835;28;20137;-69
2023/03/24 09:42:25;;;;;;;2.53;1.67;;;;;;;;;;4971126;28;20030;-71
2023/03/24 09:45:18;;;;;;;3.13;2.00;;;;;;;;;;4981964;28;20045;-70
2023/03/24 09:48:04;;;;;;;5.38;1.70;;;;;;;;;;5016250;28;20033;-71
2023/03/24 09:51:08;;;;;;;2.53;1.80;;;;;;;;;;5006131;28;20030;-69
2023/03/24 09:54:07;;;;;;;3.25;1.98;;;;;;;;;;5019299;28;20125;-68
2023/03/24 09:56:54;;;;;;;3.45;1.83;;;;;;;;;;5017758;28;20041;-68
2023/03/24 09:59:39;;;;;;;3.00;2.08;;;;;;;;;;5002228;28;20033;-68
2023/03/24 10:02:27;;;;;;;4.15;2.00;;;;;;;;;;5021633;28;20041;-69
2023/03/24 10:05:13;;;;;;;1.95;1.75;;;;;;;;;;5008659;28;20121;-77
2023/03/24 10:08:03;;;;;;;2.50;1.75;;;;;;;;;;5009415;28;20489;-69
2023/03/24 10:11:03;;;;;;;2.30;1.75;;;;;;;;;;5010653;28;20062;-71
2023/03/24 10:13:48;;;;;;;;;;;;;;;;;;5010359;28;20044;-69
2023/03/24 10:16:43;;;;;;;2.28;1.60;;;;;;;;;;4995133;28;20452;-70
2023/03/24 10:19:31;;;;;;;2.58;1.70;;;;;;;;;;5008882;28;20033;-70
2023/03/24 10:22:16;;;;;;;3.03;1.50;;;;;;;;;;5009139;28;20069;-68
2023/03/24 10:25:05;;;;;;;1.20;1.10;;;;;;;;;;5010162;28;20032;-74
2023/03/24 10:27:53;;;;;;;5.65;2.15;;;;;;;;;;4996352;28;20057;-80
2023/03/24 10:30:41;;;;;;;1.98;1.60;;;;;;;;;;5009401;28;20082;-79
2023/03/24 10:33:26;;;;;;;2.65;1.58;;;;;;;;;;5010344;28;20022;-77
2023/03/24 10:36:16;;;;;;;3.33;1.52;;;;;;;;;;5009898;28;20026;-78
2023/03/24 10:39:02;;;;;;;2.15;1.45;;;;;;;;;;5005901;28;20034;-82
2023/03/24 10:41:47;;;;;;;2.03;1.35;;;;;;;;;;5009604;28;20357;-76
2023/03/24 10:44:33;;;;;;;1.50;1.30;;;;;;;;;;5007984;28;20038;-74
2023/03/24 10:47:24;;;;;;;4.07;1.52;;;;;;;;;;5009837;28;20038;-71
2023/03/24 10:50:11;;;;;;;2.45;1.30;;;;;;;;;;5009345;28;20389;-71
2023/03/24 10:52:56;;;;;;;2.28;1.10;;;;;;;;;;5005299;28;20025;-74
2023/03/24 10:55:42;;;;;;;2.75;1.50;;;;;;;;;;5003410;28;20120;-75
2023/03/24 10:58:36;;;;;;;2.08;1.23;;;;;;;;;;5004571;28;20133;-73
2023/03/24 11:01:31;;;;;;;2.05;1.38;;;;;;;;;;5009685;28;20088;-82
2023/03/24 11:04:18;;;;;;;2.15;1.35;;;;;;;;;;5009832;28;20033;-80
2023/03/24 11:07:04;;;;;;;2.08;0.80;;;;;;;;;;5010018;28;20091;-77
2023/03/24 11:10:02;;;;;;;1.73;1.40;;;;;;;;;;5022156;28;20050;-77
2023/03/24 11:12:54;;;;;;;1.02;0.98;;;;;;;;;;5008845;28;20026;-76
2023/03/24 11:15:50;;;;;;;2.92;1.25;;;;;;;;;;5006043;28;20492;-78
2023/03/24 11:18:37;;;;;;;2.25;0.90;;;;;;;;;;5009654;28;20022;-74
2023/03/24 11:21:22;;;;;;;3.80;1.20;;;;;;;;;;5023543;28;20034;-83
2023/03/24 11:24:10;;;;;;;2.95;1.17;;;;;;;;;;4996036;28;20058;-84
2023/03/24 11:26:59;;;;;;;1.27;0.95;;;;;;;;;;5011290;28;20038;-76
2023/03/24 11:29:47;;;;;;;5.78;1.77;;;;;;;;;;4994793;28;20026;-77
2023/03/24 11:32:33;;;;;;;2.60;0.90;;;;;;;;;;4995688;28;20026;-74
2023/03/24 11:35:19;;;;;;;2.42;1.40;;;;;;;;;;5008916;28;20044;-76
2023/03/24 11:38:05;;;;;;;2.75;1.00;;;;;;;;;;5008818;28;20036;-78
2023/03/24 11:40:58;;;;;;;1.88;1.10;;;;;;;;;;5006972;28;20049;-69
2023/03/24 11:43:45;;;;;;;1.58;1.00;;;;;;;;;;5007115;28;20029;-70
2023/03/24 11:46:31;;;;;;;0.80;0.80;;;;;;;;;;5007450;28;20034;-69
2023/03/24 11:49:18;;;;;;;2.42;1.17;;;;;;;;;;5009233;28;20037;-73
2023/03/24 11:52:06;;;;;;;1.45;0.80;;;;;;;;;;4989309;28;20033;-70
2023/03/24 11:54:52;;;;;;;1.42;1.10;;;;;;;;;;5007786;28;20030;-71
2023/03/24 11:57:40;;;;;;;0.70;0.57;;;;;;;;;;5005963;28;20041;-68
2023/03/24 12:00:28;;;;;;;2.08;0.88;;;;;;;;;;5006930;28;20036;-76
2023/03/24 12:03:24;;;;;;;1.27;1.17;;;;;;;;;;5009155;28;20026;-78
2023/03/24 12:06:16;;;;;;;0.73;0.60;;;;;;;;;;5006452;28;20034;-82
2023/03/24 12:09:19;;;;;;;0.68;0.68;;;;;;;;;;5003814;28;20564;-75
2023/03/24 12:12:08;;;;;;;1.48;0.80;;;;;;;;;;5019540;28;20042;-75
2023/03/24 12:15:11;;;;;;;2.30;0.60;;;;;;;;;;5022297;28;20484;-80
2023/03/24 12:18:04;;;;;;;0.70;0.70;;;;;;;;;;5011621;28;20036;-78
2023/03/24 12:20:50;;;;;;;0.75;0.60;;;;;;;;;;5021551;28;20038;-79
2023/03/24 12:23:41;;;;;;;0.55;0.55;;;;;;;;;;5000620;28;20053;-79
2023/03/24 12:26:30;;;;;;;12.68;1.08;;;;;;;;;;5009369;28;20061;-83
2023/03/24 12:29:25;;;;;;;3.72;0.60;;;;;;;;;;5007740;28;20034;-79
2023/03/24 12:32:13;;;;;;;0.60;0.52;;;;;;;;;;5021200;28;20030;-69
2023/03/24 12:34:59;;;;;;;0.60;0.50;;;;;;;;;;5008729;28;20045;-71
2023/03/24 12:38:00;;;;;;;1.52;1.10;;;;;;;;;;5018983;28;20022;-72
2023/03/24 12:41:00;;;;;;;0.80;0.70;;;;;;;;;;5002856;28;20069;-74
2023/03/24 12:43:48;;;;;;;0.95;0.77;;;;;;;;;;5006964;28;20026;-72
2023/03/24 12:46:41;;;;;;;0.95;0.70;;;;;;;;;;4994276;28;20108;-72
2023/03/24 12:49:40;;;;;;;0.80;0.70;;;;;;;;;;5005922;28;20049;-71
2023/03/24 12:52:44;;;;;;;1.08;0.65;;;;;;;;;;4994809;28;20045;-71
2023/03/24 12:55:46;;;;;;;2.60;0.80;;;;;;;;;;5021459;28;20478;-73
2023/03/24 12:58:43;;;;;;;0.60;0.60;;;;;;;;;;5002602;28;20037;-71
2023/03/24 13:01:34;;;;;;;1.00;0.70;;;;;;;;;;5005376;28;20389;-75
2023/03/24 13:04:33;;;;;;;1.17;0.60;;;;;;;;;;5017722;28;20045;-74
2023/03/24 13:07:24;;;;;;;1.42;0.80;;;;;;;;;;5009323;28;20034;-75
2023/03/24 13:10:21;;;;;;;0.70;0.70;;;;;;;;;;5006537;28;20061;-73
2023/03/24 13:13:13;;;;;;;1.65;0.95;;;;;;;;;;5006541;28;20041;-76
2023/03/24 13:16:24;;;;;;;0.80;0.63;;;;;;;;;;5003621;28;20616;-77
2023/03/24 13:19:15;;;;;;;0.95;0.85;;;;;;;;;;5004089;28;20033;-76
2023/03/24 13:22:02;;;;;;;1.23;1.05;;;;;;;;;;5007395;28;20080;-76
2023/03/24 13:24:48;;;;;;;0.70;0.70;;;;;;;;;;5008636;28;20031;-81
2023/03/24 13:27:36;;;;;;;0.52;0.52;;;;;;;;;;5010268;28;20133;-77
2023/03/24 13:30:30;;;;;;;0.70;0.70;;;;;;;;;;4994436;28;20048;-75
2023/03/24 13:33:35;;;;;;;1.10;0.90;;;;;;;;;;5019535;28;20092;-78
2023/03/24 13:36:39;;;;;;;0.93;0.80;;;;;;;;;;5007292;28;20040;-74
2023/03/24 13:39:25;;;;;;;0.70;0.70;;;;;;;;;;4991099;28;20022;-75
2023/03/24 13:42:26;;;;;;;1.02;0.70;;;;;;;;;;5008187;28;20065;-77
2023/03/24 13:45:21;;;;;;;1.15;0.88;;;;;;;;;;4989538;28;20040;-78
2023/03/24 13:48:19;;;;;;;1.77;0.77;;;;;;;;;;5005325;28;20547;-78
2023/03/24 13:51:23;;;;;;;2.38;0.82;;;;;;;;;;5007788;28;20038;-77
2023/03/24 13:54:20;;;;;;;0.82;0.70;;;;;;;;;;4984333;28;20507;-78
2023/03/24 13:57:07;;;;;;;1.77;0.88;;;;;;;;;;5001876;28;20041;-82
2023/03/24 14:00:22;;;;;;;1.30;0.70;;;;;;;;;;5014852;28;20469;-78
2023/03/24 14:03:12;;;;;;;3.17;0.73;;;;;;;;;;4998405;28;20033;-77
2023/03/24 14:05:57;;;;;;;0.82;0.80;;;;;;;;;;5005793;28;20034;-74
2023/03/24 14:09:03;;;;;;;0.93;0.80;;;;;;;;;;5019435;28;20125;-81
2023/03/24 14:11:51;;;;;;;2.10;0.70;;;;;;;;;;4991334;28;20029;-80
2023/03/24 14:14:57;;;;;;;0.75;0.65;;;;;;;;;;5006359;28;20037;-77
2023/03/24 14:17:43;;;;;;;0.95;0.80;;;;;;;;;;5004984;28;20049;-80
2023/03/24 14:20:34;;;;;;;0.80;0.70;;;;;;;;;;5007442;28;20366;-80
2023/03/24 14:23:23;;;;;;;3.13;0.70;;;;;;;;;;4991001;28;20054;-78
2023/03/24 14:26:11;;;;;;;1.67;0.90;;;;;;;;;;5021084;28;20037;-68
2023/03/24 14:28:56;;;;;;;3.92;1.13;;;;;;;;;;5001753;28;20088;-69
2023/03/24 14:31:43;;;;;;;1.98;1.00;;;;;;;;;;5022225;28;20037;-69
2023/03/24 14:34:29;;;;;;;2.42;1.08;;;;;;;;;;5018747;28;20095;-69
2023/03/24 14:37:15;;;;;;;2.55;0.90;;;;;;;;;;5003170;28;20033;-74
2023/03/24 14:40:00;;;;;;;1.98;1.13;;;;;;;;;;5017941;28;20069;-75
2023/03/24 14:42:45;;;;;;;2.17;1.05;;;;;;;;;;5004634;28;20061;-70
2023/03/24 14:46:00;;;;;;;0.65;0.65;;;;;;;;;;5005387;28;20040;-74
2023/03/24 14:48:56;;;;;;;3.33;1.35;;;;;;;;;;5014675;28;20036;-77
2023/03/24 14:51:43;;;;;;;1.83;1.00;;;;;;;;;;4997179;28;20041;-75
2023/03/24 14:54:47;;;;;;;3.42;0.90;;;;;;;;;;5009981;28;20401;-75
2023/03/24 14:57:38;;;;;;;1.55;0.90;;;;;;;;;;5001690;28;20038;-74
2023/03/24 15:00:33;;;;;;;2.03;1.25;;;;;;;;;;5005565;28;20064;-75
2023/03/24 15:03:27;;;;;;;2.63;1.25;;;;;;;;;;5052561;22;20044;-70
2023/03/24 15:06:13;;;;;;;1.77;0.70;;;;;;;;;;5044050;28;20047;-68
2023/03/24 15:09:00;;;;;;;1.75;0.90;;;;;;;;;;5027365;28;20068;-69
2023/03/24 15:11:46;;;;;;;7.53;0.90;;;;;;;;;;5036691;28;20102;-70
2023/03/24 15:14:34;;;;;;;2.45;0.90;;;;;;;;;;5028927;28;20048;-72
2023/03/24 15:17:23;;;;;;;1.75;1.00;;;;;;;;;;5028935;28;20034;-71
2023/03/24 15:20:19;;;;;;;1.73;0.85;;;;;;;;;;5014017;28;20025;-76
2023/03/24 15:23:06;;;;;;;2.05;0.90;;;;;;;;;;5040082;28;20041;-76
2023/03/24 15:25:51;;;;;;;1.40;0.90;;;;;;;;;;5041703;28;20021;-77
2023/03/24 15:28:36;;;;;;;2.78;0.95;;;;;;;;;;5020246;28;20139;-78
2023/03/24 15:31:23;;;;;;;2.33;1.17;;;;;;;;;;5012301;28;20032;-77
2023/03/24 15:34:29;;;;;;;1.52;1.00;;;;;;;;;;5040729;28;20105;-77
2023/03/24 15:37:39;;;;;;;2.42;0.90;;;;;;;;;;5015886;28;20116;-70
2023/03/24 15:40:24;;;;;;;1.60;1.00;;;;;;;;;;5034869;28;20056;-68
2023/03/24 15:43:18;;;;;;;3.55;1.15;;;;;;;;;;5012897;28;20112;-70
2023/03/24 15:46:04;;;;;;;2.47;0.90;;;;;;;;;;5023905;28;20070;-69
2023/03/24 15:48:49;;;;;;;1.85;1.00;;;;;;;;;;5024015;28;20037;-68
2023/03/24 15:51:45;;;;;;;2.58;1.23;;;;;;;;;;5022484;28;20029;-67
2023/03/24 15:54:35;;;;;;;2.63;0.90;;;;;;;;;;5014569;28;20096;-68
2023/03/24 15:57:22;;;;;;;1.35;0.85;;;;;;;;;;5027453;28;20060;-68
2023/03/24 16:00:14;;;;;;;1.65;0.80;;;;;;;;;;5027804;28;20089;-82
2023/03/24 16:03:00;;;;;;;1.48;0.90;;;;;;;;;;5013327;28;20049;-84
2023/03/24 16:05:47;;;;;;;1.23;0.93;;;;;;;;;;5025977;28;20104;-78
2023/03/24 16:08:39;;;;;;;0.65;0.65;;;;;;;;;;5023738;28;20575;-80
2023/03/24 16:11:25;;;;;;;1.70;0.88;;;;;;;;;;5024227;28;20033;-75
2023/03/24 16:14:13;;;;;;;8.23;2.33;;;;;;;;;;5025483;28;20025;-76
2023/03/24 16:17:00;;;;;;;3.53;1.08;;;;;;;;;;5022888;28;20452;-76
2023/03/24 16:19:46;;;;;;;3.00;0.80;;;;;;;;;;5021959;28;20477;-78
2023/03/24 16:22:31;;;;;;;1.35;0.75;;;;;;;;;;5024456;28;20033;-75
2023/03/24 16:25:17;;;;;;;3.28;1.65;;;;;;;;;;5022694;28;20476;-74
2023/03/24 16:28:03;;;;;;;1.02;0.93;;;;;;;;;;5026512;28;20057;-74
2023/03/24 16:31:11;;;;;;;1.42;1.10;;;;;;;;;;5025459;28;20041;-74
2023/03/24 16:33:56;;;;;;;4.50;1.15;;;;;;;;;;5027380;28;20018;-74
2023/03/24 16:36:42;;;;;;;1.52;0.95;;;;;;;;;;5022821;28;20033;-69
2023/03/24 16:39:28;;;;;;;2.90;1.20;;;;;;;;;;5025845;28;20357;-71
2023/03/24 16:42:13;;;;;;;6.75;1.35;;;;;;;;;;5027990;28;20029;-68
2023/03/24 16:44:59;;;;;;;1.25;1.05;;;;;;;;;;5026997;28;20037;-70
2023/03/24 16:47:45;;;;;;;2.15;1.38;;;;;;;;;;5028863;28;20032;-69
2023/03/24 16:50:30;;;;;;;1.33;0.95;;;;;;;;;;5026353;28;20087;-80
2023/03/24 16:53:16;;;;;;;2.38;0.95;;;;;;;;;;5014238;28;20124;-74